Flight Track Log - Related Links

Times and Time Zones

All times are in EDT time to prevent confusion due to time zone crossing. See the DAL109 flight status page for this flight to view local times or setup timezone preferences in your user account.

Time Position Orientation Groundspeed Altitude Reporting Facility
EDT Latitude Longitude Course Direction KTS MPH feet Rate Location/Type
Wed 05:43:22 AM 40.4240 -3.5180 141° Southeast 202 232 3,700  Level FlightAware ADS-B
Wed 05:43:52 AM 40.3980 -3.4920 143° Southeast 212 244 4,600 1,585 Climbing FlightAware ADS-B
Wed 05:44:15 AM 40.3820 -3.4750 141° Southeast 228 262 5,100 982 Climbing FlightAware ADS-B
Wed 05:44:47 AM 40.3500 -3.4430 143° Southeast 266 306 5,500 1,000 Climbing FlightAware ADS-B
Wed 05:44:57 AM 40.3400 -3.4330 143° Southeast 267 307 5,800 1,817 Climbing FlightAware ADS-B
Wed 05:47:42 AM 40.1960 -3.4700 191° South 296 341 10,800 1,714 Climbing FlightAware ADS-B
Wed 05:48:27 AM 40.2160 -3.5850 283° West 351 404 11,800 1,133 Climbing FlightAware ADS-B
Wed 05:49:12 AM 40.2300 -3.6840 281° West 388 447 12,500 1,116 Climbing FlightAware ADS-B
Wed 05:49:53 AM 40.2440 -3.7840 280° West 415 478 13,400 1,683 Climbing FlightAware ADS-B
Wed 05:50:34 AM 40.2580 -3.8870 280° West 426 490 14,800 2,025 Climbing FlightAware ADS-B
Wed 05:51:13 AM 40.2710 -3.9830 280° West 432 497 16,100 2,100 Climbing FlightAware ADS-B
Wed 05:51:54 AM 40.2880 -4.0930 281° West 440 506 17,600 2,049 Climbing FlightAware ADS-B
Wed 05:52:35 AM 40.3200 -4.1930 293° West 444 511 18,900 1,800 Climbing FlightAware ADS-B
Wed 05:53:14 AM 40.3590 -4.2870 299° West 451 519 20,000 1,671 Climbing FlightAware ADS-B
Wed 05:53:54 AM 40.4000 -4.3880 298° West 458 527 21,100 1,624 Climbing FlightAware ADS-B
Wed 05:54:39 AM 40.4450 -4.4960 299° West 461 531 22,300 1,600 Climbing FlightAware ADS-B
Wed 05:55:24 AM 40.4930 -4.6110 299° West 472 543 23,500 1,465 Climbing FlightAware ADS-B
Wed 05:56:05 AM 40.5330 -4.7080 299° West 475 547 24,400 1,840 Climbing FlightAware ADS-B
Wed 05:56:39 AM 40.5710 -4.8000 299° West 459 528 25,800 2,027 Climbing FlightAware ADS-B
Wed 05:57:19 AM 40.6110 -4.8970 299° West 458 527 26,900 1,525 Climbing FlightAware ADS-B
Wed 05:58:37 AM 40.6910 -5.0920 298° West 459 528 28,800 1,426 Climbing FlightAware ADS-B
Wed 05:59:21 AM 40.7350 -5.2010 298° West 456 525 29,800 1,286 Climbing FlightAware ADS-B
Wed 06:00:01 AM 40.7750 -5.3000 298° West 453 521 30,600 857 Climbing FlightAware ADS-B
Wed 06:00:45 AM 40.8180 -5.4050 298° West 449 517 31,000 279 Climbing FlightAware ADS-B
Wed 06:01:27 AM 40.8590 -5.5060 298° West 446 513 31,000  Level FlightAware ADS-B
Wed 06:02:11 AM 40.9010 -5.6100 298° West 448 516 31,000  Level FlightAware ADS-B
Wed 06:02:51 AM 40.9390 -5.7060 298° West 449 517 31,000  Level FlightAware ADS-B
Wed 06:03:35 AM 40.9830 -5.8150 298° West 450 518 31,000  Level FlightAware ADS-B
Wed 06:04:15 AM 41.0220 -5.9120 298° West 449 517 31,000  Level FlightAware ADS-B
Wed 06:04:55 AM 41.0600 -6.0090 297° West 450 518 31,000  Level FlightAware ADS-B
Wed 06:05:39 AM 41.1030 -6.1170 298° West 449 517 31,000  Level FlightAware ADS-B
Wed 06:06:23 AM 41.1430 -6.2270 296° West 449 517 31,000  Level FlightAware ADS-B
Wed 06:07:03 AM 41.1680 -6.3280 288° West 452 520 31,000  Level FlightAware ADS-B
Wed 06:07:58 AM 41.2000 -6.4720 286° West 452 520 31,000  Level FlightAware ADS-B
Wed 06:08:41 AM 41.2250 -6.5880 286° West 452 520 31,000  Level FlightAware ADS-B
Wed 06:09:23 AM 41.2490 -6.7020 286° West 452 520 31,000  Level FlightAware ADS-B
Wed 06:10:03 AM 41.2700 -6.8090 285° West 452 520 31,000  Level FlightAware ADS-B
Wed 06:10:38 AM 41.2900 -6.9020 286° West 452 520 31,000  Level FlightAware ADS-B
Wed 06:11:41 AM 41.3200 -7.0480 285° West 453 521 31,000  Level FlightAware ADS-B
Wed 06:12:23 AM 41.3480 -7.1840 285° West 454 522 31,000  Level FlightAware ADS-B
Wed 06:13:08 AM 41.3710 -7.3010 285° West 454 522 31,000  Level FlightAware ADS-B
Wed 06:13:48 AM 41.3940 -7.4120 285° West 453 521 31,000  Level FlightAware ADS-B
Wed 06:14:23 AM 41.4130 -7.5080 285° West 453 521 31,000  Level FlightAware ADS-B
Wed 06:15:48 AM 41.4540 -7.7130 285° West 452 520 31,000  Level FlightAware ADS-B
Wed 06:17:22 AM 41.4910 -7.9100 284° West 452 520 31,000  Level FlightAware ADS-B
Wed 06:18:03 AM 41.4820 -7.8550 102° East 452 520 31,000  Level FlightAware ADS-B
Wed 06:18:53 AM 41.5560 -8.2360 285° West 455 524 31,000  Level FlightAware ADS-B
Wed 06:19:38 AM 41.5800 -8.3570 285° West 456 525 31,000  Level FlightAware ADS-B
Wed 06:20:38 AM 41.6100 -8.5170 284° West 457 526 31,000  Level FlightAware ADS-B
Wed 06:21:23 AM 41.6340 -8.6430 284° West 458 527 31,000  Level FlightAware ADS-B
Wed 06:21:59 AM 41.6520 -8.7360 285° West 459 528 31,000  Level FlightAware ADS-B
Wed 06:22:52 AM 41.6790 -8.8820 284° West 459 528 31,000  Level FlightAware ADS-B
Wed 06:23:33 AM 41.7010 -9.0020 284° West 460 529 31,000  Level FlightAware ADS-B
Wed 06:24:13 AM 41.7210 -9.1100 284° West 460 529 31,000  Level FlightAware ADS-B
Wed 06:24:58 AM 41.7440 -9.2330 284° West 461 531 31,000  Level FlightAware ADS-B
Wed 06:26:08 AM 41.7790 -9.4300 283° West 462 532 31,000  Level FlightAware ADS-B
Wed 06:26:48 AM 41.7990 -9.5390 284° West 461 531 31,000  Level FlightAware ADS-B
Wed 06:27:23 AM 41.8160 -9.6370 283° West 462 532 31,000  Level FlightAware ADS-B
Wed 06:28:08 AM 41.8380 -9.7620 283° West 463 533 31,000  Level FlightAware ADS-B
Wed 06:28:48 AM 41.8580 -9.8740 284° West 464 534 31,000  Level FlightAware ADS-B
Wed 06:29:44 AM 41.8110 -9.6060 103° East 461 531 31,000  Level FlightAware ADS-B
Wed 06:29:54 AM 41.8160 -9.6340 283° West 461 531 31,000  Level FlightAware ADS-B
Wed 06:30:58 AM 41.8370 -9.7530 283° West 462 532 31,000  Level FlightAware ADS-B
Wed 06:31:54 AM 41.8630 -9.9030 283° West 462 532 31,000  Level FlightAware ADS-B
Wed 06:32:42 AM 41.8830 -10.0150 284° West 464 534 31,000  Level FlightAware ADS-B
Wed 06:33:26 AM 41.9030 -10.1350 283° West 465 535 31,000  Level FlightAware ADS-B
Wed 06:34:06 AM 41.9330 -10.3090 283° West 464 534 31,000  Level FlightAware ADS-B
Wed 06:36:00 AM 42.0069 -10.6170 288° West  Level Estimated
Wed 06:37:00 AM 42.0454 -10.7795 288° West  Level Estimated
Wed 06:38:00 AM 42.0837 -10.9421 288° West  Level Estimated
Wed 06:39:00 AM 42.1218 -11.1049 288° West  Level Estimated
Wed 06:40:00 AM 42.1596 -11.2679 287° West  Level Estimated
Wed 06:41:00 AM 42.1973 -11.4311 287° West  Level Estimated
Wed 06:42:00 AM 42.2346 -11.5945 287° West  Level Estimated
Wed 06:43:00 AM 42.2718 -11.7580 287° West  Level Estimated
Wed 06:44:00 AM 42.3087 -11.9218 287° West  Level Estimated
Wed 06:45:00 AM 42.3454 -12.0858 287° West  Level Estimated
Wed 06:46:00 AM 42.3819 -12.2500 287° West  Level Estimated
Wed 06:47:00 AM 42.4181 -12.4143 287° West  Level Estimated
Wed 06:48:00 AM 42.4541 -12.5788 287° West  Level Estimated
Wed 06:49:00 AM 42.4898 -12.7436 286° West  Level Estimated
Wed 06:50:00 AM 42.5254 -12.9085 286° West  Level Estimated
Wed 06:51:00 AM 42.5606 -13.0736 286° West  Level Estimated
Wed 06:52:00 AM 42.5957 -13.2389 286° West  Level Estimated
Wed 06:53:00 AM 42.6305 -13.4043 286° West  Level Estimated
Wed 06:54:00 AM 42.6651 -13.5700 286° West  Level Estimated
Wed 06:55:00 AM 42.6994 -13.7358 286° West  Level Estimated
Wed 06:56:00 AM 42.7335 -13.9019 286° West  Level Estimated
Wed 06:57:00 AM 42.7673 -14.0681 286° West  Level Estimated
Wed 06:58:00 AM 42.8009 -14.2345 285° West  Level Estimated
Wed 06:59:00 AM 42.8343 -14.4010 285° West  Level Estimated
Wed 07:00:00 AM 42.8674 -14.5678 285° West  Level Estimated
Wed 07:01:00 AM 42.9003 -14.7347 285° West  Level Estimated
Wed 07:02:00 AM 42.9329 -14.9018 285° West  Level Estimated
Wed 07:03:00 AM 42.9653 -15.0691 285° West  Level Estimated
Wed 07:04:00 AM 42.9975 -15.2365 285° West  Level Estimated
Wed 07:05:00 AM 43.0294 -15.4042 285° West  Level Estimated
Wed 07:06:00 AM 43.0611 -15.5720 285° West  Level Estimated
Wed 07:07:00 AM 43.0925 -15.7399 284° West  Level Estimated
Wed 07:08:00 AM 43.1236 -15.9081 284° West  Level Estimated
Wed 07:09:00 AM 43.1546 -16.0764 284° West  Level Estimated
Wed 07:10:00 AM 43.1852 -16.2449 284° West  Level Estimated
Wed 07:11:00 AM 43.2157 -16.4135 284° West  Level Estimated
Wed 07:12:00 AM 43.2459 -16.5824 284° West  Level Estimated
Wed 07:13:00 AM 43.2758 -16.7514 284° West  Level Estimated
Wed 07:14:00 AM 43.3055 -16.9205 284° West  Level Estimated
Wed 07:15:00 AM 43.3349 -17.0898 283° West  Level Estimated
Wed 07:16:00 AM 43.3641 -17.2593 283° West  Level Estimated
Wed 07:17:00 AM 43.3930 -17.4290 283° West  Level Estimated
Wed 07:18:00 AM 43.4217 -17.5988 283° West  Level Estimated
Wed 07:19:00 AM 43.4501 -17.7687 283° West  Level Estimated
Wed 07:20:00 AM 43.4783 -17.9389 283° West  Level Estimated
Wed 07:21:00 AM 43.5062 -18.1092 283° West  Level Estimated
Wed 07:22:00 AM 43.5339 -18.2796 283° West  Level Estimated
Wed 07:23:00 AM 43.5613 -18.4502 283° West  Level Estimated
Wed 07:24:00 AM 43.5885 -18.6210 282° West  Level Estimated
Wed 07:25:00 AM 43.6154 -18.7919 282° West  Level Estimated
Wed 07:26:00 AM 43.6421 -18.9629 282° West  Level Estimated
Wed 07:27:00 AM 43.6685 -19.1341 282° West  Level Estimated
Wed 07:28:00 AM 43.6946 -19.3055 282° West  Level Estimated
Wed 07:29:00 AM 43.7205 -19.4770 282° West  Level Estimated
Wed 07:30:00 AM 43.7462 -19.6487 282° West  Level Estimated
Wed 07:31:00 AM 43.7715 -19.8205 282° West  Level Estimated
Wed 07:32:00 AM 43.7966 -19.9924 281° West  Level Estimated
Wed 07:33:00 AM 43.8215 -20.1645 281° West  Level Estimated
Wed 07:34:00 AM 43.8461 -20.3367 281° West  Level Estimated
Wed 07:35:00 AM 43.8704 -20.5091 281° West  Level Estimated
Wed 07:36:00 AM 43.8945 -20.6816 281° West  Level Estimated
Wed 07:37:00 AM 43.9184 -20.8543 281° West  Level Estimated
Wed 07:38:00 AM 43.9419 -21.0271 281° West  Level Estimated
Wed 07:39:00 AM 43.9652 -21.2000 281° West  Level Estimated
Wed 07:40:00 AM 43.9883 -21.3731 281° West  Level Estimated
Wed 07:41:00 AM 44.0111 -21.5463 280° West  Level Estimated
Wed 07:42:00 AM 44.0336 -21.7196 280° West  Level Estimated
Wed 07:43:00 AM 44.0558 -21.8931 280° West  Level Estimated
Wed 07:44:00 AM 44.0778 -22.0667 280° West  Level Estimated
Wed 07:45:00 AM 44.0996 -22.2404 280° West  Level Estimated
Wed 07:46:00 AM 44.1210 -22.4142 280° West  Level Estimated
Wed 07:47:00 AM 44.1423 -22.5882 280° West  Level Estimated
Wed 07:48:00 AM 44.1632 -22.7623 280° West  Level Estimated
Wed 07:49:00 AM 44.1839 -22.9365 279° West  Level Estimated
Wed 07:50:00 AM 44.2043 -23.1108 279° West  Level Estimated
Wed 07:51:00 AM 44.2244 -23.2853 279° West  Level Estimated
Wed 07:52:00 AM 44.2443 -23.4599 279° West  Level Estimated
Wed 07:53:00 AM 44.2639 -23.6346 279° West  Level Estimated
Wed 07:54:00 AM 44.2833 -23.8094 279° West  Level Estimated
Wed 07:55:00 AM 44.3023 -23.9843 279° West  Level Estimated
Wed 07:56:00 AM 44.3212 -24.1594 279° West  Level Estimated
Wed 07:57:00 AM 44.3397 -24.3345 278° West  Level Estimated
Wed 07:58:00 AM 44.3580 -24.5098 278° West  Level Estimated
Wed 07:59:00 AM 44.3760 -24.6851 278° West  Level Estimated
Wed 08:00:00 AM 44.3937 -24.8606 278° West  Level Estimated
Wed 08:01:00 AM 44.4112 -25.0362 278° West  Level Estimated
Wed 08:02:00 AM 44.4284 -25.2119 278° West  Level Estimated
Wed 08:03:00 AM 44.4454 -25.3877 278° West  Level Estimated
Wed 08:04:00 AM 44.4620 -25.5636 278° West  Level Estimated
Wed 08:05:00 AM 44.4784 -25.7396 277° West  Level Estimated
Wed 08:06:00 AM 44.4945 -25.9156 277° West  Level Estimated
Wed 08:07:00 AM 44.5104 -26.0918 277° West  Level Estimated
Wed 08:08:00 AM 44.5260 -26.2681 277° West  Level Estimated
Wed 08:09:00 AM 44.5413 -26.4445 277° West  Level Estimated
Wed 08:10:00 AM 44.5563 -26.6209 277° West  Level Estimated
Wed 08:11:00 AM 44.5711 -26.7975 277° West  Level Estimated
Wed 08:12:00 AM 44.5856 -26.9741 277° West  Level Estimated
Wed 08:13:00 AM 44.5998 -27.1509 277° West  Level Estimated
Wed 08:14:00 AM 44.6138 -27.3277 276° West  Level Estimated
Wed 08:15:00 AM 44.6274 -27.5046 276° West  Level Estimated
Wed 08:16:00 AM 44.6409 -27.6816 276° West  Level Estimated
Wed 08:17:00 AM 44.6540 -27.8586 276° West  Level Estimated
Wed 08:18:00 AM 44.6668 -28.0358 276° West  Level Estimated
Wed 08:19:00 AM 44.6794 -28.2130 276° West  Level Estimated
Wed 08:20:00 AM 44.6917 -28.3903 276° West  Level Estimated
Wed 08:21:00 AM 44.7038 -28.5676 276° West  Level Estimated
Wed 08:22:00 AM 44.7155 -28.7451 275° West  Level Estimated
Wed 08:23:00 AM 44.7270 -28.9226 275° West  Level Estimated
Wed 08:24:00 AM 44.7382 -29.1002 275° West  Level Estimated
Wed 08:25:00 AM 44.7492 -29.2778 275° West  Level Estimated
Wed 08:26:00 AM 44.7598 -29.4556 275° West  Level Estimated
Wed 08:27:00 AM 44.7702 -29.6334 275° West  Level Estimated
Wed 08:28:00 AM 44.7803 -29.8112 275° West  Level Estimated
Wed 08:29:00 AM 44.7901 -29.9891 275° West  Level Estimated
Wed 08:30:00 AM 44.7997 -30.1671 274° West  Level Estimated
Wed 08:31:00 AM 44.8090 -30.3451 274° West  Level Estimated
Wed 08:32:00 AM 44.8180 -30.5232 274° West  Level Estimated
Wed 08:33:00 AM 44.8267 -30.7013 274° West  Level Estimated
Wed 08:34:00 AM 44.8352 -30.8795 274° West  Level Estimated
Wed 08:35:00 AM 44.8433 -31.0578 274° West  Level Estimated
Wed 08:36:00 AM 44.8512 -31.2360 274° West  Level Estimated
Wed 08:37:00 AM 44.8588 -31.4144 274° West  Level Estimated
Wed 08:38:00 AM 44.8662 -31.5928 273° West  Level Estimated
Wed 08:39:00 AM 44.8732 -31.7712 273° West  Level Estimated
Wed 08:40:00 AM 44.8800 -31.9497 273° West  Level Estimated
Wed 08:41:00 AM 44.8865 -32.1282 273° West  Level Estimated
Wed 08:42:00 AM 44.8928 -32.3068 273° West  Level Estimated
Wed 08:43:00 AM 44.8987 -32.4854 273° West  Level Estimated
Wed 08:44:00 AM 44.9044 -32.6640 273° West  Level Estimated
Wed 08:45:00 AM 44.9098 -32.8426 273° West  Level Estimated
Wed 08:46:00 AM 44.9149 -33.0213 272° West  Level Estimated
Wed 08:47:00 AM 44.9197 -33.2001 272° West  Level Estimated
Wed 08:48:00 AM 44.9243 -33.3788 272° West  Level Estimated
Wed 08:49:00 AM 44.9286 -33.5576 272° West  Level Estimated
Wed 08:50:00 AM 44.9326 -33.7364 272° West  Level Estimated
Wed 08:51:00 AM 44.9363 -33.9152 272° West  Level Estimated
Wed 08:52:00 AM 44.9397 -34.0941 272° West  Level Estimated
Wed 08:53:00 AM 44.9429 -34.2730 271° West  Level Estimated
Wed 08:54:00 AM 44.9458 -34.4519 271° West  Level Estimated
Wed 08:55:00 AM 44.9484 -34.6308 271° West  Level Estimated
Wed 08:56:00 AM 44.9507 -34.8097 271° West  Level Estimated
Wed 08:57:00 AM 44.9527 -34.9887 271° West  Level Estimated
Wed 08:58:00 AM 44.9545 -35.1676 271° West  Level Estimated
Wed 08:59:00 AM 44.9560 -35.3466 271° West  Level Estimated
Wed 09:00:00 AM 44.9572 -35.5256 271° West  Level Estimated
Wed 09:01:00 AM 44.9581 -35.7045 270° West  Level Estimated
Wed 09:02:00 AM 44.9588 -35.8835 270° West  Level Estimated
Wed 09:03:00 AM 44.9591 -36.0625 270° West  Level Estimated
Wed 09:04:00 AM 44.9592 -36.2415 270° West  Level Estimated
Wed 09:05:00 AM 44.9590 -36.4205 270° West  Level Estimated
Wed 09:06:00 AM 44.9586 -36.5995 270° West  Level Estimated
Wed 09:07:00 AM 44.9578 -36.7785 270° West  Level Estimated
Wed 09:08:00 AM 44.9568 -36.9574 270° West  Level Estimated
Wed 09:09:00 AM 44.9555 -37.1364 269° West  Level Estimated
Wed 09:10:00 AM 44.9539 -37.3154 269° West  Level Estimated
Wed 09:11:00 AM 44.9520 -37.4943 269° West  Level Estimated
Wed 09:12:00 AM 44.9499 -37.6732 269° West  Level Estimated
Wed 09:13:00 AM 44.9474 -37.8522 269° West  Level Estimated
Wed 09:14:00 AM 44.9447 -38.0311 269° West  Level Estimated
Wed 09:15:00 AM 44.9417 -38.2100 269° West  Level Estimated
Wed 09:16:00 AM 44.9385 -38.3888 269° West  Level Estimated
Wed 09:17:00 AM 44.9349 -38.5677 268° West  Level Estimated
Wed 09:18:00 AM 44.9311 -38.7465 268° West  Level Estimated
Wed 09:19:00 AM 44.9270 -38.9253 268° West  Level Estimated
Wed 09:19:54 AM 44.0000 -40.0000 266° West 450 518 31,000  Level New York Oceanic (ODAPS)
Wed 09:20:00 AM 44.9226 -39.1041 268° West  Level Estimated
Wed 09:21:00 AM 44.9179 -39.2828 268° West  Level Estimated
Wed 09:22:00 AM 44.9130 -39.4616 268° West  Level Estimated
Wed 09:23:00 AM 44.9078 -39.6402 268° West  Level Estimated
Wed 09:24:00 AM 44.9023 -39.8189 268° West  Level Estimated
Wed 09:25:00 AM 44.8965 -39.9975 267° West  Level Estimated
Wed 09:26:00 AM 43.9273 -41.2020 265° West 450 518 31,000  Level FlightAware Transoceanic
Wed 09:26:08 AM 43.9333 -41.1833 265° West 443 510 31,000  Level New York Oceanic (ODAPS)
Wed 09:27:00 AM 43.9159 -41.3734 265° West 450 518 31,000  Level FlightAware Transoceanic
Wed 09:28:00 AM 43.9043 -41.5448 265° West 450 518 31,000  Level FlightAware Transoceanic
Wed 09:29:00 AM 43.8923 -41.7162 264° West 450 518 31,000  Level FlightAware Transoceanic
Wed 09:30:00 AM 43.8802 -41.8874 264° West 450 518 31,000  Level FlightAware Transoceanic
Wed 09:31:00 AM 43.8677 -42.0586 264° West 450 518 31,000  Level FlightAware Transoceanic
Wed 09:32:00 AM 43.8620 -42.1939 264° West 443 510 31,000  Level FlightAware Transoceanic
Wed 09:33:00 AM 43.8492 -42.3621 264° West 443 510 31,000  Level FlightAware Transoceanic
Wed 09:34:00 AM 43.8362 -42.5303 264° West 443 510 31,000  Level FlightAware Transoceanic
Wed 09:35:00 AM 43.8229 -42.6983 264° West 443 510 31,000  Level FlightAware Transoceanic
Wed 09:36:00 AM 43.8095 -42.8663 264° West 443 510 31,000  Level FlightAware Transoceanic
Wed 09:37:00 AM 43.7957 -43.0342 263° West 443 510 31,000  Level FlightAware Transoceanic
Wed 09:38:00 AM 43.7817 -43.2020 263° West 443 510 31,000  Level FlightAware Transoceanic
Wed 09:39:00 AM 43.7675 -43.3697 263° West 443 510 31,000  Level FlightAware Transoceanic
Wed 09:39:58 AM 43.7500 -43.5667 263° West 439 505 31,000  Level New York Oceanic (ODAPS)
Wed 09:40:00 AM 43.7530 -43.5374 263° West 443 510 31,000  Level FlightAware Transoceanic
Wed 09:41:00 AM 43.7383 -43.7049 263° West 443 510 31,000  Level FlightAware Transoceanic
Wed 09:42:00 AM 43.7233 -43.8724 263° West 443 510 31,000  Level FlightAware Transoceanic
Wed 09:43:00 AM 43.7081 -44.0398 263° West 443 510 31,000  Level FlightAware Transoceanic
Wed 09:44:00 AM 43.6926 -44.2072 263° West 443 510 31,000  Level FlightAware Transoceanic
Wed 09:45:00 AM 43.6769 -44.3744 263° West 443 510 31,000  Level FlightAware Transoceanic
Wed 09:46:00 AM 43.6582 -44.5662 262° West 439 505 31,000  Level FlightAware Transoceanic
Wed 09:47:00 AM 43.6421 -44.7326 262° West 439 505 31,000  Level FlightAware Transoceanic
Wed 09:48:00 AM 43.6257 -44.8988 262° West 439 505 31,000  Level FlightAware Transoceanic
Wed 09:49:00 AM 43.6091 -45.0649 262° West 439 505 31,000  Level FlightAware Transoceanic
Wed 09:50:00 AM 43.5922 -45.2309 262° West 439 505 31,000  Level FlightAware Transoceanic
Wed 09:51:00 AM 43.5751 -45.3968 262° West 439 505 31,000  Level FlightAware Transoceanic
Wed 09:52:00 AM 43.5578 -45.5626 262° West 439 505 31,000  Level FlightAware Transoceanic
Wed 09:53:00 AM 43.5402 -45.7284 262° West 439 505 31,000  Level FlightAware Transoceanic
Wed 09:53:50 AM 43.5167 -45.8667 262° West 433 498 31,000  Level New York Oceanic (ODAPS)
Wed 09:54:00 AM 43.5224 -45.8940 262° West 439 505 31,000  Level FlightAware Transoceanic
Wed 09:55:00 AM 43.5043 -46.0596 261° West 439 505 31,000  Level FlightAware Transoceanic
Wed 09:56:00 AM 43.4860 -46.2250 261° West 439 505 31,000  Level FlightAware Transoceanic
Wed 09:57:00 AM 43.4675 -46.3903 261° West 439 505 31,000  Level FlightAware Transoceanic
Wed 09:58:00 AM 43.4487 -46.5556 261° West 439 505 31,000  Level FlightAware Transoceanic
Wed 09:59:00 AM 43.4297 -46.7207 261° West 439 505 31,000  Level FlightAware Transoceanic
Wed 10:00:00 AM 43.4063 -46.8649 261° West 433 498 31,000  Level FlightAware Transoceanic
Wed 10:01:00 AM 43.3870 -47.0309 261° West 433 498 31,000  Level FlightAware Transoceanic
Wed 10:02:00 AM 43.3676 -47.1968 261° West 433 498 31,000  Level FlightAware Transoceanic
Wed 10:03:00 AM 43.3478 -47.3627 261° West 433 498 31,000  Level FlightAware Transoceanic
Wed 10:04:00 AM 43.3279 -47.5284 261° West 433 498 31,000  Level FlightAware Transoceanic
Wed 10:05:00 AM 43.3077 -47.6939 260° West 433 498 31,000  Level FlightAware Transoceanic
Wed 10:06:00 AM 43.2873 -47.8594 260° West 433 498 31,000  Level FlightAware Transoceanic
Wed 10:07:00 AM 43.2666 -48.0248 260° West 433 498 31,000  Level FlightAware Transoceanic
Wed 10:07:42 AM 43.2667 -48.1167 260° West 427 491 31,000  Level New York Oceanic (ODAPS)
Wed 10:08:00 AM 43.2457 -48.1900 260° West 433 498 31,000  Level FlightAware Transoceanic
Wed 10:09:00 AM 43.2245 -48.3552 260° West 433 498 31,000  Level FlightAware Transoceanic
Wed 10:10:00 AM 43.2031 -48.5202 260° West 433 498 31,000  Level FlightAware Transoceanic
Wed 10:11:00 AM 43.1815 -48.6851 260° West 433 498 31,000  Level FlightAware Transoceanic
Wed 10:12:00 AM 43.1596 -48.8499 260° West 433 498 31,000  Level FlightAware Transoceanic
Wed 10:13:00 AM 43.1375 -49.0145 260° West 433 498 31,000  Level FlightAware Transoceanic
Wed 10:14:00 AM 43.1149 -49.2173 259° West 427 491 31,000  Level FlightAware Transoceanic
Wed 10:15:00 AM 43.0923 -49.3741 259° West 427 491 31,000  Level FlightAware Transoceanic
Wed 10:16:00 AM 43.0696 -49.5307 259° West 427 491 31,000  Level FlightAware Transoceanic
Wed 10:17:00 AM 43.0466 -49.6873 259° West 427 491 31,000  Level FlightAware Transoceanic
Wed 10:18:00 AM 43.0234 -49.8437 258° West 427 491 31,000  Level FlightAware Transoceanic
Wed 10:19:00 AM 43.0000 -50.0000 266° West 427 491 31,000 1,034 Level FlightAware Transoceanic
Wed 10:19:56 AM 43.0000 -50.0000 266° West 435 501 33,000  Climbing New York Oceanic (ODAPS)
Wed 10:20:00 AM 42.9905 -50.1689 266° West 427 491 31,000 -1,875 Descending FlightAware Transoceanic
Wed 10:21:00 AM 42.9808 -50.3378 265° West 427 491 31,000 1,263 Level FlightAware Transoceanic
Wed 10:21:35 AM 42.9833 -50.3000 265° West 440 506 33,000  Climbing New York Oceanic (ODAPS)
Wed 10:22:00 AM 42.9709 -50.5067 265° West 427 491 31,000 -1,412 Descending FlightAware Transoceanic
Wed 10:23:00 AM 42.9607 -50.6754 265° West 427 491 31,000  Level FlightAware Transoceanic
Wed 10:24:00 AM 42.9502 -50.8442 265° West 427 491 31,000  Level FlightAware Transoceanic
Wed 10:25:00 AM 42.9395 -51.0128 265° West 427 491 31,000 1,000 Level FlightAware Transoceanic
Wed 10:26:00 AM 42.9310 -51.1434 265° West 435 501 33,000 1,000 Climbing FlightAware Transoceanic
Wed 10:27:00 AM 42.9211 -51.2990 265° West 440 506 33,000  Level FlightAware Transoceanic
Wed 10:28:00 AM 42.9098 -51.4652 265° West 440 506 33,000  Level FlightAware Transoceanic
Wed 10:29:00 AM 42.8983 -51.6315 265° West 440 506 33,000  Level FlightAware Transoceanic
Wed 10:30:00 AM 42.8867 -51.7976 264° West 440 506 33,000  Level FlightAware Transoceanic
Wed 10:31:00 AM 42.8747 -51.9637 264° West 440 506 33,000  Level FlightAware Transoceanic
Wed 10:32:00 AM 42.8625 -52.1298 264° West 440 506 33,000  Level FlightAware Transoceanic
Wed 10:33:00 AM 42.8501 -52.2957 264° West 440 506 33,000  Level FlightAware Transoceanic
Wed 10:34:00 AM 42.8374 -52.4616 264° West 440 506 33,000  Level FlightAware Transoceanic
Wed 10:35:00 AM 42.8245 -52.6275 264° West 440 506 33,000  Level FlightAware Transoceanic
Wed 10:35:26 AM 42.8333 -52.5000 264° West 435 501 33,000  Level New York Oceanic (ODAPS)
Wed 10:36:00 AM 42.8114 -52.7932 264° West 440 506 33,000  Level FlightAware Transoceanic
Wed 10:37:00 AM 42.7980 -52.9589 264° West 440 506 33,000  Level FlightAware Transoceanic
Wed 10:38:00 AM 42.7844 -53.1245 264° West 440 506 33,000  Level FlightAware Transoceanic
Wed 10:39:00 AM 42.7705 -53.2901 263° West 440 506 33,000  Level FlightAware Transoceanic
Wed 10:40:00 AM 42.7564 -53.4556 263° West 440 506 33,000  Level FlightAware Transoceanic
Wed 10:41:00 AM 42.7544 -53.4678 263° West 435 501 33,000  Level FlightAware Transoceanic
Wed 10:42:00 AM 42.7404 -53.6289 263° West 435 501 33,000  Level FlightAware Transoceanic
Wed 10:43:00 AM 42.7262 -53.7898 263° West 435 501 33,000  Level FlightAware Transoceanic
Wed 10:44:00 AM 42.7118 -53.9508 263° West 435 501 33,000  Level FlightAware Transoceanic
Wed 10:45:00 AM 42.6972 -54.1116 263° West 435 501 33,000  Level FlightAware Transoceanic
Wed 10:46:00 AM 42.6824 -54.2724 263° West 435 501 33,000  Level FlightAware Transoceanic
Wed 10:47:00 AM 42.6673 -54.4330 263° West 435 501 33,000  Level FlightAware Transoceanic
Wed 10:48:00 AM 42.6520 -54.5936 263° West 435 501 33,000  Level FlightAware Transoceanic
Wed 10:49:00 AM 42.6365 -54.7542 262° West 435 501 33,000  Level FlightAware Transoceanic
Wed 10:49:20 AM 42.6500 -54.7000 262° West 427 491 33,000  Level New York Oceanic (ODAPS)
Wed 10:50:00 AM 42.6207 -54.9146 262° West 435 501 33,000  Level FlightAware Transoceanic
Wed 10:51:00 AM 42.6047 -55.0750 262° West 435 501 33,000  Level FlightAware Transoceanic
Wed 10:52:00 AM 42.5885 -55.2352 262° West 435 501 33,000  Level FlightAware Transoceanic
Wed 10:53:00 AM 42.5721 -55.3954 262° West 435 501 33,000  Level FlightAware Transoceanic
Wed 10:54:00 AM 42.5555 -55.5555 262° West 435 501 33,000  Level FlightAware Transoceanic
Wed 10:55:00 AM 42.5531 -55.6430 262° West 427 491 33,000  Level FlightAware Transoceanic
Wed 10:56:00 AM 42.5362 -55.7998 262° West 427 491 33,000  Level FlightAware Transoceanic
Wed 10:57:00 AM 42.5191 -55.9566 262° West 427 491 33,000  Level FlightAware Transoceanic
Wed 10:58:00 AM 42.5018 -56.1133 261° West 427 491 33,000  Level FlightAware Transoceanic
Wed 10:59:00 AM 42.4842 -56.2699 261° West 427 491 33,000  Level FlightAware Transoceanic
Wed 11:00:00 AM 42.4665 -56.4265 261° West 427 491 33,000  Level FlightAware Transoceanic
Wed 11:01:00 AM 42.4485 -56.5829 261° West 427 491 33,000  Level FlightAware Transoceanic
Wed 11:02:00 AM 42.4304 -56.7392 261° West 427 491 33,000  Level FlightAware Transoceanic
Wed 11:03:00 AM 42.4120 -56.8955 261° West 427 491 33,000  Level FlightAware Transoceanic
Wed 11:03:13 AM 42.4167 -56.8000 261° West 428 493 33,000  Level New York Oceanic (ODAPS)
Wed 11:04:00 AM 42.3934 -57.0517 261° West 427 491 33,000  Level FlightAware Transoceanic
Wed 11:05:00 AM 42.3745 -57.2077 261° West 427 491 33,000  Level FlightAware Transoceanic
Wed 11:06:00 AM 42.3555 -57.3637 261° West 427 491 33,000  Level FlightAware Transoceanic
Wed 11:07:00 AM 42.3363 -57.5196 260° West 427 491 33,000  Level FlightAware Transoceanic
Wed 11:08:00 AM 42.3168 -57.6754 260° West 427 491 33,000  Level FlightAware Transoceanic
Wed 11:09:00 AM 42.3010 -57.7644 260° West 428 493 33,000  Level FlightAware Transoceanic
Wed 11:10:00 AM 42.2810 -57.9248 260° West 428 493 33,000  Level FlightAware Transoceanic
Wed 11:11:00 AM 42.2607 -58.0850 260° West 428 493 33,000  Level FlightAware Transoceanic
Wed 11:12:00 AM 42.2402 -58.2452 260° West 428 493 33,000  Level FlightAware Transoceanic
Wed 11:13:00 AM 42.2195 -58.4053 260° West 428 493 33,000  Level FlightAware Transoceanic
Wed 11:14:00 AM 42.1985 -58.5652 260° West 428 493 33,000  Level FlightAware Transoceanic
Wed 11:15:00 AM 42.1773 -58.7251 260° West 428 493 33,000  Level FlightAware Transoceanic
Wed 11:16:00 AM 42.1559 -58.8848 260° West 428 493 33,000  Level FlightAware Transoceanic
Wed 11:17:00 AM 42.1343 -59.0445 260° West 428 493 33,000  Level FlightAware Transoceanic
Wed 11:17:06 AM 42.1333 -59.0833 259° West 446 513 33,000  Level New York Oceanic (ODAPS)
Wed 11:18:00 AM 42.1125 -59.2040 259° West 428 493 33,000  Level FlightAware Transoceanic
Wed 11:19:00 AM 42.0904 -59.3634 259° West 428 493 33,000  Level FlightAware Transoceanic
Wed 11:20:00 AM 42.0681 -59.5228 259° West 428 493 33,000  Level FlightAware Transoceanic
Wed 11:21:00 AM 42.0457 -59.6819 259° West 428 493 33,000  Level FlightAware Transoceanic
Wed 11:22:00 AM 42.0229 -59.8410 259° West 428 493 33,000  Level FlightAware Transoceanic
Wed 11:23:00 AM 41.9611 -60.1673 253° West 446 513 33,000  Level FlightAware Transoceanic
Wed 11:23:39 AM 42.0000 -60.0000 253° West 459 528 33,000  Level New York Oceanic (ODAPS)
Wed 11:24:00 AM 41.9220 -60.3343 252° West 446 513 33,000  Level FlightAware Transoceanic
Wed 11:25:00 AM 41.8826 -60.5012 252° West 446 513 33,000  Level FlightAware Transoceanic
Wed 11:26:00 AM 41.8430 -60.6678 252° West 446 513 33,000  Level FlightAware Transoceanic
Wed 11:27:00 AM 41.8031 -60.8343 252° West 446 513 33,000  Level FlightAware Transoceanic
Wed 11:28:00 AM 41.7630 -61.0005 252° West 446 513 33,000  Level FlightAware Transoceanic
Wed 11:29:00 AM 41.7630 -61.0005 252° West 459 528 33,000  Level FlightAware Transoceanic
Wed 11:30:00 AM 41.7227 -61.1665 252° West 459 528 33,000 522 Level FlightAware Transoceanic
Wed 11:30:55 AM 41.6833 -61.3167 252° West 468 539 34,000  Climbing New York Oceanic (ODAPS)
Wed 11:31:00 AM 41.6821 -61.3324 252° West 459 528 33,000 -923 Descending FlightAware Transoceanic
Wed 11:32:00 AM 41.6413 -61.4980 252° West 459 528 33,000  Level FlightAware Transoceanic
Wed 11:33:00 AM 41.6003 -61.6634 252° West 459 528 33,000  Level FlightAware Transoceanic
Wed 11:34:00 AM 41.5590 -61.8286 251° West 459 528 33,000  Level FlightAware Transoceanic
Wed 11:35:00 AM 41.5174 -61.9935 251° West 459 528 33,000  Level FlightAware Transoceanic
Wed 11:36:00 AM 41.4757 -62.1583 251° West 459 528 33,000 500 Level FlightAware Transoceanic
Wed 11:37:00 AM 41.4348 -62.3099 251° West 468 539 34,000 500 Climbing FlightAware Transoceanic
Wed 11:38:00 AM 41.3926 -62.4747 251° West 468 539 34,000  Level FlightAware Transoceanic
Wed 11:39:00 AM 41.3501 -62.6393 251° West 468 539 34,000  Level FlightAware Transoceanic
Wed 11:40:00 AM 41.3074 -62.8037 251° West 468 539 34,000  Level FlightAware Transoceanic
Wed 11:41:00 AM 41.2644 -62.9678 251° West 468 539 34,000  Level FlightAware Transoceanic
Wed 11:42:00 AM 41.2212 -63.1317 251° West 468 539 34,000  Level FlightAware Transoceanic
Wed 11:43:00 AM 41.1778 -63.2955 251° West 468 539 34,000  Level FlightAware Transoceanic
Wed 11:44:00 AM 41.1342 -63.4590 250° West 468 539 34,000  Level FlightAware Transoceanic
Wed 11:44:39 AM 41.0833 -63.6333 250° West 485 558 34,000  Level New York Oceanic (ODAPS)
Wed 11:45:00 AM 41.0903 -63.6222 250° West 468 539 34,000  Level FlightAware Transoceanic
Wed 11:46:00 AM 41.0462 -63.7853 250° West 468 539 34,000  Level FlightAware Transoceanic
Wed 11:47:00 AM 41.0018 -63.9482 250° West 468 539 34,000  Level FlightAware Transoceanic
Wed 11:48:00 AM 40.9573 -64.1108 250° West 468 539 34,000  Level FlightAware Transoceanic
Wed 11:49:00 AM 40.9125 -64.2732 250° West 468 539 34,000  Level FlightAware Transoceanic
Wed 11:50:00 AM 40.8674 -64.4354 250° West 468 539 34,000  Level FlightAware Transoceanic
Wed 11:51:00 AM 40.8036 -64.6535 250° West 485 558 34,000  Level FlightAware Transoceanic
Wed 11:52:00 AM 40.7562 -64.8227 250° West 485 558 34,000  Level FlightAware Transoceanic
Wed 11:53:00 AM 40.7084 -64.9917 249° West 485 558 34,000  Level FlightAware Transoceanic
Wed 11:54:00 AM 40.6604 -65.1604 249° West 485 558 34,000  Level FlightAware Transoceanic
Wed 11:55:00 AM 40.6122 -65.3288 249° West 485 558 34,000  Level FlightAware Transoceanic
Wed 11:56:00 AM 40.5638 -65.4971 249° West 485 558 34,000  Level FlightAware Transoceanic
Wed 11:57:00 AM 40.5150 -65.6650 249° West 485 558 34,000  Level FlightAware Transoceanic
Wed 11:58:00 AM 40.4661 -65.8328 249° West 485 558 34,000  Level FlightAware Transoceanic
Wed 11:58:39 AM 40.4333 -65.9833 248° West 494 568 34,000  Level New York Oceanic (ODAPS)
Wed 11:59:00 AM 40.4169 -66.0003 249° West 485 558 34,000  Level FlightAware Transoceanic
Wed 12:00:00 PM 40.3675 -66.1675 249° West 485 558 34,000  Level FlightAware Transoceanic
Wed 12:01:00 PM 40.3178 -66.3345 249° West 485 558 34,000 -79 Level FlightAware Transoceanic
Wed 12:01:16 PM 40.2919 -66.4344 245° Southwest 471 542 33,900  Descending New York Center
Wed 12:02:00 PM 40.2678 -66.5012 249° West 485 558 34,000  Climbing FlightAware Transoceanic
Wed 12:02:15 PM 40.2358 -66.6172 248° West 503 579 33,900  Descending New York Center
Wed 12:03:00 PM 40.2177 -66.6677 248° West 485 558 34,000 98 Climbing FlightAware Transoceanic
Wed 12:03:16 PM 40.1850 -66.7833 248° West 503 579 34,000  Level New York Center
Wed 12:04:00 PM 40.1624 -66.8553 248° West 494 568 34,000 -98 Level FlightAware Transoceanic
Wed 12:04:17 PM 40.1342 -66.9517 248° West 508 585 33,900  Descending New York Center
Wed 12:05:00 PM 40.1167 -67.0000 246° West 494 568 34,000 103 Climbing FlightAware Transoceanic
Wed 12:05:15 PM 40.0769 -67.1203 246° West 508 585 34,000  Level New York Center
Wed 12:06:00 PM 40.0587 -67.1661 245° Southwest 494 568 34,000 98 Level FlightAware Transoceanic
Wed 12:06:16 PM 40.0214 -67.2831 246° West 508 585 34,100 1,440 Climbing New York Center
Wed 12:07:15 PM 39.9633 -67.4456 245° Southwest 502 578 35,800 950 Climbing New York Center
Wed 12:08:16 PM 39.9092 -67.5997 245° Southwest 488 562 36,000 98 Climbing New York Center
Wed 12:09:17 PM 39.8486 -67.7619 244° Southwest 475 547 36,000 -49 Level New York Center
Wed 12:10:18 PM 39.7939 -67.9156 245° Southwest 480 552 35,900  Descending New York Center
Wed 12:11:15 PM 39.7372 -68.0744 245° Southwest 485 558 36,000 51 Climbing New York Center
Wed 12:12:16 PM 39.6800 -68.2328 245° Southwest 485 558 36,000  Level New York Center
Wed 12:13:16 PM 39.6208 -68.3939 245° Southwest 485 558 36,000  Level New York Center
Wed 12:14:17 PM 39.5633 -68.5494 244° Southwest 494 568 36,000  Level New York Center
Wed 12:15:15 PM 39.5017 -68.7208 245° Southwest 494 568 36,000  Level New York Center
Wed 12:16:16 PM 39.4439 -68.8783 245° Southwest 499 574 36,000  Level New York Center
Wed 12:17:17 PM 39.3858 -69.0383 245° Southwest 494 568 36,000  Level New York Center
Wed 12:18:17 PM 39.3272 -69.1925 244° Southwest 488 562 36,000  Level New York Center
Wed 12:19:15 PM 39.2564 -69.3497 240° Southwest 498 573 36,000  Level New York Center
Wed 12:20:16 PM 39.1786 -69.4878 234° Southwest 498 573 36,000  Level New York Center
Wed 12:21:16 PM 39.1008 -69.6361 236° Southwest 501 577 36,000 -50 Level New York Center
Wed 12:22:17 PM 39.0311 -69.7736 237° Southwest 472 543 35,900 -50 Descending New York Center
Wed 12:23:17 PM 38.9569 -69.9214 237° Southwest 487 560 35,900  Level New York Center
Wed 12:24:15 PM 38.8850 -70.0636 237° Southwest 491 565 35,900  Level New York Center
Wed 12:25:15 PM 38.8022 -70.2056 233° Southwest 494 568 35,900 50 Level New York Center
Wed 12:26:15 PM 38.7047 -70.3472 229° Southwest 506 582 36,000  Climbing New York Center
Wed 12:27:15 PM 38.6114 -70.4725 226° Southwest 507 583 35,900  Descending New York Center
Wed 12:28:16 PM 38.5133 -70.6031 226° Southwest 500 575 36,000 49 Climbing New York Center
Wed 12:29:17 PM 38.4197 -70.7331 227° Southwest 500 575 36,000  Level New York Center
Wed 12:30:17 PM 38.3278 -70.8575 227° Southwest 500 575 36,000 -50 Level New York Center
Wed 12:31:17 PM 38.2317 -70.9867 227° Southwest 494 568 35,900  Descending New York Center
Wed 12:32:17 PM 38.1394 -71.1053 225° Southwest 493 567 36,000 Climbing New York Center
Wed 12:34:00 PM 37.9859 -71.2960 224° Southwest  Level FlightAware Approximate
Wed 12:41:00 PM 37.3583 -72.0679 228° Southwest  Level FlightAware Approximate
Wed 12:42:00 PM 37.2740 -72.1842 228° Southwest  Level FlightAware Approximate
Wed 12:43:00 PM 37.1896 -72.3002 228° Southwest  Level FlightAware Approximate
Wed 12:43:07 PM 37.0958 -72.4828 270° West 494 568 36,000  Level Washington Center
Wed 12:44:00 PM 37.1051 -72.4159 228° Southwest  Level FlightAware Approximate
Wed 12:44:08 PM 36.9947 -72.6067 224° Southwest 503 579 36,000  Level Washington Center
Wed 12:45:00 PM 37.0205 -72.5314 227° Southwest  Level FlightAware Approximate
Wed 12:45:09 PM 36.9483 -72.7642 250° West 478 550 35,900  Level Washington Center
Wed 12:46:00 PM 36.9358 -72.6467 227° Southwest  Level FlightAware Approximate
Wed 12:46:09 PM 36.9439 -72.9308 268° West 480 552 35,900  Level Washington Center
Wed 12:47:00 PM 36.9335 -72.8020 270° West  Level FlightAware Approximate
Wed 12:47:07 PM 36.9433 -73.0997 270° West 487 560 36,000  Level Washington Center
Wed 12:48:00 PM 36.9334 -72.9585 270° West  Level FlightAware Approximate
Wed 12:48:08 PM 36.9447 -73.2686 271° West 487 560 35,900  Level Washington Center
Wed 12:54:02 PM 36.9418 -74.2869 271° West 492 566 36,000 15 Climbing FlightAware ADS-B
Wed 12:54:47 PM 36.9403 -74.4135 269° West 493 567 36,000  Level FlightAware ADS-B
Wed 12:55:22 PM 36.9391 -74.5139 269° West 494 568 36,000  Level FlightAware ADS-B
Wed 12:56:28 PM 36.9369 -74.7016 269° West 495 570 36,000  Level FlightAware ADS-B
Wed 12:56:58 PM 36.9359 -74.7890 269° West 496 571 36,000  Level FlightAware ADS-B
Wed 12:57:32 PM 36.9345 -74.8860 269° West 496 571 36,000  Level FlightAware ADS-B
Wed 12:58:04 PM 36.9331 -74.9779 269° West 497 572 36,000  Level FlightAware ADS-B
Wed 12:58:44 PM 36.9314 -75.0921 269° West 498 573 36,000  Level FlightAware ADS-B
Wed 12:59:15 PM 36.9300 -75.1795 269° West 498 573 36,000  Level FlightAware ADS-B
Wed 12:59:45 PM 36.9285 -75.2667 269° West 498 573 36,000  Level FlightAware ADS-B
Wed 01:01:05 PM 36.9250 -75.4580 269° West 36,000  Level FlightAware ADS-B
Wed 01:02:21 PM 36.9210 -75.7000 269° West 498 573 36,000  Level FlightAware ADS-B
Wed 01:03:12 PM 36.9190 -75.8250 269° West 498 573 36,000  Level FlightAware ADS-B
Wed 01:03:36 PM 36.9180 -75.8840 269° West 498 573 36,000  Level FlightAware ADS-B
Wed 01:04:22 PM 36.9160 -75.9960 269° West 498 573 36,000  Level FlightAware ADS-B
Wed 01:04:58 PM 36.9150 -76.0840 269° West 498 573 36,000  Level FlightAware ADS-B
Wed 01:05:34 PM 36.9140 -76.1730 269° West 498 573 36,000  Level FlightAware ADS-B
Wed 01:07:52 PM 36.5600 -76.5400 220° Southwest 498 573 36,000  Level FlightAware ADS-B
Wed 01:08:36 PM 36.5060 -76.6520 239° Southwest 497 572 36,000  Level FlightAware ADS-B
Wed 01:09:13 PM 36.4660 -76.7320 238° Southwest 498 573 36,000  Level FlightAware ADS-B
Wed 01:09:49 PM 36.4290 -76.8060 238° Southwest 498 573 36,000  Level FlightAware ADS-B
Wed 01:10:37 PM 36.3790 -76.9050 238° Southwest 498 573 36,000  Level FlightAware ADS-B
Wed 01:11:47 PM 36.3060 -77.0500 238° Southwest 498 573 36,000  Level FlightAware ADS-B
Wed 01:12:28 PM 36.2310 -77.2130 240° Southwest 492 566 36,000  Level FlightAware ADS-B
Wed 01:13:24 PM 36.1650 -77.3470 239° Southwest 491 565 36,000  Level FlightAware ADS-B
Wed 01:14:12 PM 36.1070 -77.4640 238° Southwest 491 565 36,000  Level FlightAware ADS-B
Wed 01:14:54 PM 36.0570 -77.5640 238° Southwest 490 564 36,000  Level FlightAware ADS-B
Wed 01:16:08 PM 35.9800 -77.7050 236° Southwest 490 564 36,000  Level FlightAware ADS-B
Wed 01:16:52 PM 35.9040 -77.8370 235° Southwest 488 562 36,000  Level FlightAware ADS-B
Wed 01:17:24 PM 35.8630 -77.9070 234° Southwest 489 563 36,000  Level FlightAware ADS-B
Wed 01:18:06 PM 35.8070 -77.9980 233° Southwest 489 563 36,000  Level FlightAware ADS-B
Wed 01:18:48 PM 35.7480 -78.0950 233° Southwest 488 562 36,000  Level FlightAware ADS-B
Wed 01:19:32 PM 35.6900 -78.1890 233° Southwest 489 563 36,000  Level FlightAware ADS-B
Wed 01:20:09 PM 35.6410 -78.2700 233° Southwest 490 564 36,000  Level FlightAware ADS-B
Wed 01:20:56 PM 35.5750 -78.3770 233° Southwest 491 565 36,000  Level FlightAware ADS-B
Wed 01:21:34 PM 35.5220 -78.4630 233° Southwest 492 566 36,000  Level FlightAware ADS-B
Wed 01:22:24 PM 35.4550 -78.5720 233° Southwest 493 567 36,000  Level FlightAware ADS-B
Wed 01:23:08 PM 35.3940 -78.6710 233° Southwest 494 568 36,000  Level FlightAware ADS-B
Wed 01:24:06 PM 35.3200 -78.7890 232° Southwest 494 568 36,000  Level FlightAware ADS-B
Wed 01:24:42 PM 35.2770 -78.8570 232° Southwest 494 568 36,000  Level FlightAware ADS-B
Wed 01:25:18 PM 35.2340 -78.9240 232° Southwest 494 568 36,000  Level FlightAware ADS-B
Wed 01:26:02 PM 35.1580 -79.0490 233° Southwest 495 570 36,000  Level FlightAware ADS-B
Wed 01:26:44 PM 35.0970 -79.1490 233° Southwest 496 571 36,000  Level FlightAware ADS-B
Wed 01:27:21 PM 35.0470 -79.2280 232° Southwest 497 572 36,000  Level FlightAware ADS-B
Wed 01:28:09 PM 34.9760 -79.3410 233° Southwest 495 570 36,000  Level FlightAware ADS-B
Wed 01:28:49 PM 34.9200 -79.4300 233° Southwest 493 567 36,000  Level FlightAware ADS-B
Wed 01:29:33 PM 34.8590 -79.5260 232° Southwest 492 566 36,000  Level FlightAware ADS-B
Wed 01:29:53 PM 34.8310 -79.5710 233° Southwest 492 566 36,000  Level FlightAware ADS-B
Wed 01:31:01 PM 34.7540 -79.6910 232° Southwest 492 566 36,000  Level FlightAware ADS-B
Wed 01:31:43 PM 34.6810 -79.8070 233° Southwest 492 566 36,000  Level FlightAware ADS-B
Wed 01:32:24 PM 34.6230 -79.8980 232° Southwest 492 566 36,000  Level FlightAware ADS-B
Wed 01:33:06 PM 34.5640 -79.9900 232° Southwest 491 565 36,000  Level FlightAware ADS-B
Wed 01:33:51 PM 34.5000 -80.0890 232° Southwest 493 567 36,000  Level FlightAware ADS-B
Wed 01:34:23 PM 34.4580 -80.1560 233° Southwest 493 567 36,000  Level FlightAware ADS-B
Wed 01:35:06 PM 34.4010 -80.2440 232° Southwest 495 570 36,000  Level FlightAware ADS-B
Wed 01:36:06 PM 34.3180 -80.3730 232° Southwest 496 571 36,000  Level FlightAware ADS-B
Wed 01:36:36 PM 34.2710 -80.4450 232° Southwest 498 573 36,000  Level FlightAware ADS-B
Wed 01:37:21 PM 34.2050 -80.5470 232° Southwest 498 573 36,000  Level FlightAware ADS-B
Wed 01:38:01 PM 34.1490 -80.6330 232° Southwest 496 571 36,000  Level FlightAware ADS-B
Wed 01:38:56 PM 34.0730 -80.7490 232° Southwest 495 570 36,000  Level FlightAware ADS-B
Wed 01:39:56 PM 33.9890 -80.8780 232° Southwest 485 558 36,000  Level FlightAware ADS-B
Wed 01:40:37 PM 33.9300 -80.9680 232° Southwest 477 549 36,000  Level FlightAware ADS-B
Wed 01:41:11 PM 33.8870 -81.0430 235° Southwest 471 542 36,000  Level FlightAware ADS-B
Wed 01:41:52 PM 33.8540 -81.1370 247° West 471 542 36,000  Level FlightAware ADS-B
Wed 01:42:36 PM 33.8220 -81.2480 251° West 474 545 36,000  Level FlightAware ADS-B
Wed 01:43:11 PM 33.8040 -81.3360 256° West 473 544 36,000  Level FlightAware ADS-B
Wed 01:43:56 PM 33.7800 -81.4550 256° West 472 543 36,000  Level FlightAware ADS-B
Wed 01:45:43 PM 33.7300 -81.7100 257° West 466 536 36,000  Level FlightAware ADS-B
Wed 01:46:24 PM 33.7120 -81.8100 258° West 460 529 36,000  Level FlightAware ADS-B
Wed 01:47:06 PM 33.6980 -81.9280 262° West 458 527 36,000 -145 Level FlightAware ADS-B
Wed 01:47:47 PM 33.6860 -82.0320 262° West 460 529 35,800 -750 Descending FlightAware ADS-B
Wed 01:48:26 PM 33.6740 -82.1350 262° West 467 537 35,000 -649 Descending FlightAware ADS-B
Wed 01:49:01 PM 33.6630 -82.2240 262° West 470 541 35,000 -375 Level FlightAware ADS-B
Wed 01:49:46 PM 33.6440 -82.3400 259° West 472 543 34,500 -977 Descending FlightAware ADS-B
Wed 01:50:27 PM 33.6280 -82.4400 259° West 475 547 33,600 -1,395 Descending FlightAware ADS-B
Wed 01:51:12 PM 33.6080 -82.5590 259° West 482 555 32,500 -1,448 Descending FlightAware ADS-B
Wed 01:51:54 PM 33.5760 -82.6580 249° West 487 560 31,500 -1,421 Descending FlightAware ADS-B
Wed 01:52:28 PM 33.5490 -82.7450 250° West 491 565 30,700 -1,519 Descending FlightAware ADS-B
Wed 01:53:13 PM 33.5130 -82.8610 250° West 481 554 29,500 -1,793 Descending FlightAware ADS-B
Wed 01:53:55 PM 33.4800 -82.9620 249° West 469 540 28,100 -2,049 Descending FlightAware ADS-B
Wed 01:54:35 PM 33.4400 -83.0600 244° Southwest 454 522 26,700 -2,308 Descending FlightAware ADS-B
Wed 01:55:13 PM 33.3960 -83.1350 235° Southwest 444 511 25,100 -2,571 Descending FlightAware ADS-B
Wed 01:55:59 PM 33.3450 -83.2300 237° Southwest 428 493 23,100 -2,933 Descending FlightAware ADS-B
Wed 01:56:43 PM 33.3230 -83.3260 255° West 407 468 20,700 -3,253 Descending FlightAware ADS-B
Wed 01:57:22 PM 33.3070 -83.4100 257° West 391 450 18,600 -2,458 Descending FlightAware ADS-B
Wed 01:58:06 PM 33.2910 -83.5000 258° West 381 438 17,300 -1,929 Descending FlightAware ADS-B
Wed 01:58:46 PM 33.2760 -83.5850 258° West 383 441 15,900 -1,902 Descending FlightAware ADS-B
Wed 01:59:28 PM 33.2610 -83.6700 258° West 378 435 14,700 -1,457 Descending FlightAware ADS-B
Wed 01:59:56 PM 33.2510 -83.7230 257° West 367 422 14,200 -449 Descending FlightAware ADS-B
Wed 02:01:15 PM 33.2390 -83.8410 263° West 332 382 13,900 -407 Descending FlightAware ADS-B
Wed 02:01:54 PM 33.2930 -83.9180 310° West 307 353 13,400 -963 Descending FlightAware ADS-B
Wed 02:02:36 PM 33.3320 -83.9700 312° West 295 339 12,600 -1,275 Descending FlightAware ADS-B
Wed 02:03:14 PM 33.3640 -84.0200 307° West 293 337 11,700 -1,308 Descending FlightAware ADS-B
Wed 02:03:54 PM 33.3950 -84.0710 306° West 288 331 10,900 -600 Descending FlightAware ADS-B
Wed 02:04:34 PM 33.4270 -84.1220 307° West 287 330 10,900  Level FlightAware ADS-B
Wed 02:05:14 PM 33.4580 -84.1750 305° West 311 358 10,900  Level FlightAware ADS-B
Wed 02:05:54 PM 33.4800 -84.2400 292° West 320 368 10,900 -75 Level FlightAware ADS-B
Wed 02:06:34 PM 33.5050 -84.3050 295° West 323 372 10,800  Descending FlightAware ADS-B
Wed 02:07:14 PM 33.5260 -84.3670 292° West 277 319 10,900 -71 Climbing FlightAware ADS-B
Wed 02:07:58 PM 33.5360 -84.4330 280° West 271 312 10,700 -955 Descending FlightAware ADS-B
Wed 02:08:42 PM 33.5470 -84.4970 282° West 264 304 9,500 -1,667 Descending FlightAware ADS-B
Wed 02:09:10 PM 33.5530 -84.5370 280° West 261 300 8,700 -1,929 Descending FlightAware ADS-B
Wed 02:09:38 PM 33.5590 -84.5770 280° West 257 296 7,700 -2,082 Descending FlightAware ADS-B
Wed 02:09:59 PM 33.5590 -84.6060 270° West 256 295 7,000 -1,957 Descending FlightAware ADS-B
Wed 02:10:24 PM 33.5590 -84.6400 270° West 250 288 6,200 -1,418 Descending FlightAware ADS-B
Wed 02:10:54 PM 33.5590 -84.6800 270° West 221 254 5,700 -1,113 Descending FlightAware ADS-B
Wed 02:12:01 PM 33.5590 -84.7520 270° West 190 219 4,400 -938 Descending FlightAware ADS-B
Wed 02:12:30 PM 33.5590 -84.7840 270° West 195 224 4,200 -471 Descending FlightAware ADS-B
Wed 02:12:52 PM 33.5610 -84.8080 276° West 198 228 4,000 -600 Descending FlightAware ADS-B
Wed 02:13:10 PM 33.5710 -84.8220 311° West 198 228 3,800 -800 Descending FlightAware ADS-B
Wed 02:13:22 PM 33.5820 -84.8250 347° North 200 230 3,600 -900 Descending FlightAware ADS-B
Wed 02:13:50 PM 33.6060 -84.8170 16° North 202 232 3,200 -783 Descending FlightAware ADS-B
Wed 02:14:08 PM 33.6230 -84.8100 19° North 205 236 3,000 -429 Descending FlightAware ADS-B
Wed 02:14:18 PM 33.6290 -84.8030 44° Northeast 204 235 3,000 -500 Level FlightAware ADS-B
Wed 02:14:32 PM 33.6350 -84.7870 66° East 202 232 2,800 -200 Descending FlightAware ADS-B
Wed 02:14:48 PM 33.6410 -84.7700 67° East 207 238 2,900 78 Climbing FlightAware ADS-B
Wed 02:15:49 PM 33.6460 -84.7020 85° East 203 234 2,900  Level FlightAware ADS-B
Wed 02:16:13 PM 33.6460 -84.6750 90° East 202 232 2,900  Level FlightAware ADS-B
Wed 02:16:45 PM 33.6460 -84.6380 90° East 206 237 2,900  Level FlightAware ADS-B
Wed 02:17:09 PM 33.6460 -84.6110 90° East 204 235 2,900 -222 Level FlightAware ADS-B
Wed 02:17:39 PM 33.6460 -84.5770 90° East 202 232 2,700 -643 Descending FlightAware ADS-B
Wed 02:18:05 PM 33.6460 -84.5480 90° East 197 227 2,300 -960 Descending FlightAware ADS-B
Wed 02:18:29 PM 33.6460 -84.5230 90° East 178 205 1,900 -889 Descending FlightAware ADS-B
Wed 02:18:59 PM 33.6460 -84.4950 90° East 166 191 1,500 -800 Descending FlightAware ADS-B
Wed 02:19:29 PM 33.6460 -84.4680 90° East 165 190 1,100 -800 Descending FlightAware ADS-B
Wed 02:19:57 PM 33.6460 -84.4430 90° East 125 144 -2,357 Descending FlightAware ADS-B
Wed 02:20:25 PM 33.6470 -84.4340 82° East 30 35  Level FlightAware ADS-B
Wed 02:20:37 PM 33.6480 -84.4330 40° Northeast 15 17  Level FlightAware ADS-B
Wed 02:21:21 PM 33.6480 -84.4340 270° West 20 23  Level FlightAware ADS-B

Login

Don't have an account? Register now (free) for customized features, flight alerts, and more!